Armadores I — SY8463 — position and weather

sailwx.info

Track history (hours):
 
Tides and Currents Weather Stations Pressure Air Temp Water Temp Dewpoint Dewpoint Depression Visibility Wind Speed Wind Dir Waves Ship Positions

Armadores I

Last reported at 2016-Dec-07 11:33 UTC. Time now 2016-Dec-08 11:58 UTC.
Position N 37°57' E 023°37'.

Length 32 m.

Type: Tug. MMSI: 240694000.

Date/timePositionNaut miles runAvg speedWind from/ knotsBaromVisibWave heightAir tempDewpointWater temp
2016-Dec-07 11:33N 37°57' E 023°37'0 0.1
2016-Dec-07 10:33N 37°57' E 023°37'0 0.0
2016-Dec-07 09:33N 37°57' E 023°37'0 0.0
2016-Dec-07 08:33N 37°57' E 023°37'0 0.0
2016-Dec-07 07:33N 37°57' E 023°37'1 1.5
2016-Dec-07 06:33N 37°57' E 023°35'0 0.0
2016-Dec-07 05:33N 37°57' E 023°35'0 0.0
2016-Dec-07 04:33N 37°57' E 023°35'0 0.0
2016-Dec-07 03:33N 37°57' E 023°35'0 0.0
2016-Dec-07 02:33N 37°57' E 023°35'0 0.0
2016-Dec-07 01:34N 37°57' E 023°35'0 0.4
2016-Dec-07 00:33N 37°57' E 023°35'0 0.2
2016-Dec-06 23:33N 37°57' E 023°35'0 0.2
2016-Dec-06 22:33N 37°57' E 023°35'0 0.4
2016-Dec-06 21:33N 37°57' E 023°36'2 2.2
2016-Dec-06 20:33N 37°57' E 023°33'8 4.0
2016-Dec-06 18:34N 37°58' E 023°23'0 0.2
2016-Dec-06 17:33N 37°58' E 023°23'0 0.1
2016-Dec-06 16:33N 37°58' E 023°23'1 1.0
2016-Dec-06 15:33N 37°58' E 023°24'6 6.1
2016-Dec-06 14:33N 38°02' E 023°31'1 1.3
2016-Dec-06 13:33N 38°02' E 023°32'3 2.7
2016-Dec-06 12:34N 38°02' E 023°35'4 4.4
2016-Dec-06 11:33N 37°58' E 023°33'3 2.6
2016-Dec-06 10:33N 37°57' E 023°37'0 0.0
2016-Dec-06 09:33N 37°57' E 023°37'0 0.0
2016-Dec-06 08:33N 37°57' E 023°37'0 0.0
2016-Dec-06 07:33N 37°57' E 023°37'0 0.0
2016-Dec-06 06:32N 37°57' E 023°37'0 0.0
2016-Dec-06 05:33N 37°57' E 023°37'0 0.0
2016-Dec-06 04:33N 37°57' E 023°37'0 0.0
2016-Dec-06 03:33N 37°57' E 023°37'0 0.0
2016-Dec-06 02:33N 37°57' E 023°37'1 1.1
2016-Dec-06 01:33N 37°57' E 023°35'1 1.0
2016-Dec-06 00:33N 37°57' E 023°36'0 0.0
2016-Dec-05 23:33N 37°57' E 023°36'0 0.0
2016-Dec-05 22:34N 37°57' E 023°36'0 0.0
2016-Dec-05 21:33N 37°57' E 023°36'0 0.5
2016-Dec-05 20:33N 37°57' E 023°36'0 0.5
2016-Dec-05 19:33N 37°57' E 023°36'1 0.8
2016-Dec-05 18:33N 37°57' E 023°36'0 0.2
2016-Dec-05 17:33N 37°57' E 023°36'1 0.7
2016-Dec-05 16:34N 37°57' E 023°37'2 1.9
2016-Dec-05 15:33N 37°57' E 023°34'1 1.3
2016-Dec-05 14:33N 37°57' E 023°36'0 0.3
2016-Dec-05 13:33N 37°57' E 023°36'0 0.5
2016-Dec-05 12:33N 37°57' E 023°37'0 0.0
2016-Dec-05 11:33N 37°57' E 023°37'0 0.0
2016-Dec-05 10:34N 37°57' E 023°37'0 0.0
2016-Dec-05 09:34N 37°57' E 023°37'0 0.1
2016-Dec-05 08:33N 37°57' E 023°37'0 0.0
2016-Dec-05 07:33N 37°57' E 023°37'0 0.0
2016-Dec-05 06:33N 37°57' E 023°37'0 0.0
2016-Dec-05 05:33N 37°57' E 023°37'0 0.0
2016-Dec-05 04:33N 37°57' E 023°37'0 0.0
2016-Dec-05 03:33N 37°57' E 023°37'1 1.5
2016-Dec-05 02:33N 37°57' E 023°35'1 0.7
2016-Dec-05 01:33N 37°57' E 023°36'0 0.3
2016-Dec-05 00:33N 37°57' E 023°35'0 0.5
2016-Dec-04 23:33N 37°57' E 023°36'0 0.1
2016-Dec-04 22:33N 37°57' E 023°36'1 0.7
2016-Dec-04 21:33N 37°57' E 023°37'  
2016-Dec-02 00:03N 37°57' E 023°37'3 5.9
2016-Dec-01 23:33N 37°58' E 023°33'6 6.4
2016-Dec-01 22:33N 37°59' E 023°25'2 1.8
2016-Dec-01 21:33N 37°58' E 023°23'2 1.6
2016-Dec-01 20:33N 37°57' E 023°22'2 2.3
2016-Dec-01 19:34N 37°58' E 023°24'0 0.0
2016-Dec-01 18:33N 37°58' E 023°24'0 0.0
2016-Dec-01 17:33N 37°58' E 023°24'6 5.9
2016-Dec-01 16:33N 38°01' E 023°31'4 3.7
2016-Dec-01 15:34N 38°02' E 023°35'3 2.6
2016-Dec-01 14:33N 38°02' E 023°32'0 0.0
2016-Dec-01 13:33N 38°02' E 023°32'2 1.8
2016-Dec-01 12:33N 38°02' E 023°30'2 1.9
2016-Dec-01 11:33N 38°00' E 023°32'5 4.8
2016-Dec-01 10:34N 37°57' E 023°36'0 0.4
2016-Dec-01 09:34N 37°57' E 023°36'1 0.9
2016-Dec-01 08:33N 37°57' E 023°37'0 0.0
2016-Dec-01 07:33N 37°57' E 023°37'0 0.0
2016-Dec-01 06:33N 37°57' E 023°37'1 0.9
2016-Dec-01 05:33N 37°57' E 023°36'1 0.9
2016-Dec-01 04:33N 37°57' E 023°37'0 0.0
2016-Nov-30 18:33N 37°57' E 023°37'0 0.3
2016-Nov-30 17:33N 37°57' E 023°36'0 0.3
2016-Nov-30 16:33N 37°57' E 023°37'0 0.0
2016-Nov-30 15:33N 37°57' E 023°37'0 0.0
2016-Nov-30 14:33N 37°57' E 023°37'0 0.0
2016-Nov-30 13:33N 37°57' E 023°37'0 0.0
2016-Nov-30 12:33N 37°57' E 023°37'6 5.9
2016-Nov-30 11:33N 38°01' E 023°30'4 3.5
2016-Nov-30 10:33N 37°60' E 023°26'2 2.1
2016-Nov-30 09:33N 37°58' E 023°24'1 0.7
2016-Nov-30 08:33N 37°57' E 023°24'3 2.8
2016-Nov-30 07:33N 37°55' E 023°22'7 7.3
2016-Nov-30 06:33N 37°54' E 023°31'5 5.4
2016-Nov-30 05:33N 37°58' E 023°36'0 0.0
2016-Nov-30 04:33N 37°58' E 023°36'2 0.2
2016-Nov-29 13:34N 37°57' E 023°33'5 4.8
2016-Nov-29 12:34N 38°02' E 023°32'3 2.6
2016-Nov-29 11:34N 38°02' E 023°36'0 0.0
2016-Nov-29 10:34N 38°01' E 023°36'0 0.0
2016-Nov-29 09:34N 38°01' E 023°36'0 0.0
2016-Nov-29 08:33N 38°01' E 023°36'0 0.0
2016-Nov-29 07:33N 38°01' E 023°36'0 0.0
2016-Nov-29 06:33N 38°01' E 023°36'0 0.0
2016-Nov-29 05:34N 38°01' E 023°36'0 0.0
2016-Nov-29 04:33N 38°01' E 023°36'0 0.0
2016-Nov-29 03:33N 38°01' E 023°36'0 0.0
2016-Nov-29 02:33N 38°01' E 023°36'0 0.0
2016-Nov-29 01:33N 38°01' E 023°36'0 0.0
2016-Nov-29 00:33N 38°01' E 023°36'0 0.0
2016-Nov-28 23:33N 38°01' E 023°36'0 0.0
2016-Nov-28 22:33N 38°01' E 023°36'0 0.0
2016-Nov-28 21:33N 38°01' E 023°36'0 0.0
2016-Nov-28 20:33N 38°01' E 023°36'0 0.0
2016-Nov-28 19:33N 38°01' E 023°36'0 0.0
2016-Nov-28 18:34N 38°01' E 023°36'0 0.0
2016-Nov-28 17:33N 38°01' E 023°36'0 0.0
2016-Nov-28 16:33N 38°01' E 023°36'0 0.0
2016-Nov-28 15:34N 38°01' E 023°36'0 0.0
2016-Nov-28 14:33N 38°01' E 023°36'0 0.0
2016-Nov-28 13:33N 38°01' E 023°36'0 0.0
2016-Nov-28 12:33N 38°01' E 023°36'0 0.0
2016-Nov-28 11:34N 38°01' E 023°36'0 0.0
2016-Nov-28 10:33N 38°01' E 023°36'0 0.0
2016-Nov-28 09:33N 38°01' E 023°36'0 0.0
2016-Nov-28 08:33N 38°01' E 023°36'0 0.0
2016-Nov-28 07:33N 38°01' E 023°36'0 0.0
2016-Nov-28 06:33N 38°01' E 023°36'0 0.0
2016-Nov-28 05:33N 38°01' E 023°36'0 0.0
2016-Nov-28 04:34N 38°01' E 023°36'0 0.0
2016-Nov-28 03:33N 38°01' E 023°36'0 0.0
2016-Nov-28 02:33N 38°01' E 023°36'0 0.0
2016-Nov-28 01:33N 38°01' E 023°36'0 0.0
2016-Nov-28 00:33N 38°01' E 023°36'0 0.0
2016-Nov-27 23:33N 38°01' E 023°36'0 0.0
2016-Nov-27 22:34N 38°01' E 023°36'0 0.0
2016-Nov-27 21:34N 38°01' E 023°36'0 0.0
2016-Nov-27 20:33N 38°01' E 023°36'0 0.0
2016-Nov-27 19:33N 38°01' E 023°36'0 0.0
2016-Nov-27 18:33N 38°01' E 023°36'0 0.0
2016-Nov-27 17:33N 38°01' E 023°36'0 0.0
2016-Nov-27 16:34N 38°01' E 023°36'0 0.0
2016-Nov-27 15:34N 38°01' E 023°36'0 0.0
2016-Nov-27 14:34N 38°01' E 023°36'0 0.1
2016-Nov-27 13:34N 38°02' E 023°36'0 0.1
2016-Nov-27 12:33N 38°01' E 023°36'3 2.8
2016-Nov-27 11:33N 37°60' E 023°33'  
Track history (hours):
 
Tides and Currents Weather Stations Pressure Air Temp Water Temp Dewpoint Dewpoint Depression Visibility Wind Speed Wind Dir Waves Ship Positions

Armadores I

Last reported at 2016-Dec-07 11:33 UTC. Time now 2016-Dec-08 11:58 UTC.
Position N 37°57' E 023°37'.

Length 32 m.

Type: Tug. MMSI: 240694000.

Date/timePositionNaut miles runAvg speedWind from/ knotsBaromVisibWave heightAir tempDewpointWater temp
2016-Dec-07 11:33N 37°57' E 023°37'0 0.1
2016-Dec-07 10:33N 37°57' E 023°37'0 0.0
2016-Dec-07 09:33N 37°57' E 023°37'0 0.0
2016-Dec-07 08:33N 37°57' E 023°37'0 0.0
2016-Dec-07 07:33N 37°57' E 023°37'1 1.5
2016-Dec-07 06:33N 37°57' E 023°35'0 0.0
2016-Dec-07 05:33N 37°57' E 023°35'0 0.0
2016-Dec-07 04:33N 37°57' E 023°35'0 0.0
2016-Dec-07 03:33N 37°57' E 023°35'0 0.0
2016-Dec-07 02:33N 37°57' E 023°35'0 0.0
2016-Dec-07 01:34N 37°57' E 023°35'0 0.4
2016-Dec-07 00:33N 37°57' E 023°35'0 0.2
2016-Dec-06 23:33N 37°57' E 023°35'0 0.2
2016-Dec-06 22:33N 37°57' E 023°35'0 0.4
2016-Dec-06 21:33N 37°57' E 023°36'2 2.2
2016-Dec-06 20:33N 37°57' E 023°33'8 4.0
2016-Dec-06 18:34N 37°58' E 023°23'0 0.2
2016-Dec-06 17:33N 37°58' E 023°23'0 0.1
2016-Dec-06 16:33N 37°58' E 023°23'1 1.0
2016-Dec-06 15:33N 37°58' E 023°24'6 6.1
2016-Dec-06 14:33N 38°02' E 023°31'1 1.3
2016-Dec-06 13:33N 38°02' E 023°32'3 2.7
2016-Dec-06 12:34N 38°02' E 023°35'4 4.4
2016-Dec-06 11:33N 37°58' E 023°33'3 2.6
2016-Dec-06 10:33N 37°57' E 023°37'0 0.0
2016-Dec-06 09:33N 37°57' E 023°37'0 0.0
2016-Dec-06 08:33N 37°57' E 023°37'0 0.0
2016-Dec-06 07:33N 37°57' E 023°37'0 0.0
2016-Dec-06 06:32N 37°57' E 023°37'0 0.0
2016-Dec-06 05:33N 37°57' E 023°37'0 0.0
2016-Dec-06 04:33N 37°57' E 023°37'0 0.0
2016-Dec-06 03:33N 37°57' E 023°37'0 0.0
2016-Dec-06 02:33N 37°57' E 023°37'1 1.1
2016-Dec-06 01:33N 37°57' E 023°35'1 1.0
2016-Dec-06 00:33N 37°57' E 023°36'0 0.0
2016-Dec-05 23:33N 37°57' E 023°36'0 0.0
2016-Dec-05 22:34N 37°57' E 023°36'0 0.0
2016-Dec-05 21:33N 37°57' E 023°36'0 0.5
2016-Dec-05 20:33N 37°57' E 023°36'0 0.5
2016-Dec-05 19:33N 37°57' E 023°36'1 0.8
2016-Dec-05 18:33N 37°57' E 023°36'0 0.2
2016-Dec-05 17:33N 37°57' E 023°36'1 0.7
2016-Dec-05 16:34N 37°57' E 023°37'2 1.9
2016-Dec-05 15:33N 37°57' E 023°34'1 1.3
2016-Dec-05 14:33N 37°57' E 023°36'0 0.3
2016-Dec-05 13:33N 37°57' E 023°36'0 0.5
2016-Dec-05 12:33N 37°57' E 023°37'0 0.0
2016-Dec-05 11:33N 37°57' E 023°37'0 0.0
2016-Dec-05 10:34N 37°57' E 023°37'0 0.0
2016-Dec-05 09:34N 37°57' E 023°37'0 0.1
2016-Dec-05 08:33N 37°57' E 023°37'0 0.0
2016-Dec-05 07:33N 37°57' E 023°37'0 0.0
2016-Dec-05 06:33N 37°57' E 023°37'0 0.0
2016-Dec-05 05:33N 37°57' E 023°37'0 0.0
2016-Dec-05 04:33N 37°57' E 023°37'0 0.0
2016-Dec-05 03:33N 37°57' E 023°37'1 1.5
2016-Dec-05 02:33N 37°57' E 023°35'1 0.7
2016-Dec-05 01:33N 37°57' E 023°36'0 0.3
2016-Dec-05 00:33N 37°57' E 023°35'0 0.5
2016-Dec-04 23:33N 37°57' E 023°36'0 0.1
2016-Dec-04 22:33N 37°57' E 023°36'1 0.7
2016-Dec-04 21:33N 37°57' E 023°37'  
2016-Dec-02 00:03N 37°57' E 023°37'3 5.9
2016-Dec-01 23:33N 37°58' E 023°33'6 6.4
2016-Dec-01 22:33N 37°59' E 023°25'2 1.8
2016-Dec-01 21:33N 37°58' E 023°23'2 1.6
2016-Dec-01 20:33N 37°57' E 023°22'2 2.3
2016-Dec-01 19:34N 37°58' E 023°24'0 0.0
2016-Dec-01 18:33N 37°58' E 023°24'0 0.0
2016-Dec-01 17:33N 37°58' E 023°24'6 5.9
2016-Dec-01 16:33N 38°01' E 023°31'4 3.7
2016-Dec-01 15:34N 38°02' E 023°35'3 2.6
2016-Dec-01 14:33N 38°02' E 023°32'0 0.0
2016-Dec-01 13:33N 38°02' E 023°32'2 1.8
2016-Dec-01 12:33N 38°02' E 023°30'2 1.9
2016-Dec-01 11:33N 38°00' E 023°32'5 4.8
2016-Dec-01 10:34N 37°57' E 023°36'0 0.4
2016-Dec-01 09:34N 37°57' E 023°36'1 0.9
2016-Dec-01 08:33N 37°57' E 023°37'0 0.0
2016-Dec-01 07:33N 37°57' E 023°37'0 0.0
2016-Dec-01 06:33N 37°57' E 023°37'1 0.9
2016-Dec-01 05:33N 37°57' E 023°36'1 0.9
2016-Dec-01 04:33N 37°57' E 023°37'0 0.0
2016-Nov-30 18:33N 37°57' E 023°37'0 0.3
2016-Nov-30 17:33N 37°57' E 023°36'0 0.3
2016-Nov-30 16:33N 37°57' E 023°37'0 0.0
2016-Nov-30 15:33N 37°57' E 023°37'0 0.0
2016-Nov-30 14:33N 37°57' E 023°37'0 0.0
2016-Nov-30 13:33N 37°57' E 023°37'0 0.0
2016-Nov-30 12:33N 37°57' E 023°37'6 5.9
2016-Nov-30 11:33N 38°01' E 023°30'4 3.5
2016-Nov-30 10:33N 37°60' E 023°26'2 2.1
2016-Nov-30 09:33N 37°58' E 023°24'1 0.7
2016-Nov-30 08:33N 37°57' E 023°24'3 2.8
2016-Nov-30 07:33N 37°55' E 023°22'7 7.3
2016-Nov-30 06:33N 37°54' E 023°31'5 5.4
2016-Nov-30 05:33N 37°58' E 023°36'0 0.0
2016-Nov-30 04:33N 37°58' E 023°36'2 0.2
2016-Nov-29 13:34N 37°57' E 023°33'5 4.8
2016-Nov-29 12:34N 38°02' E 023°32'3 2.6
2016-Nov-29 11:34N 38°02' E 023°36'0 0.0
2016-Nov-29 10:34N 38°01' E 023°36'0 0.0
2016-Nov-29 09:34N 38°01' E 023°36'0 0.0
2016-Nov-29 08:33N 38°01' E 023°36'0 0.0
2016-Nov-29 07:33N 38°01' E 023°36'0 0.0
2016-Nov-29 06:33N 38°01' E 023°36'0 0.0
2016-Nov-29 05:34N 38°01' E 023°36'0 0.0
2016-Nov-29 04:33N 38°01' E 023°36'0 0.0
2016-Nov-29 03:33N 38°01' E 023°36'0 0.0
2016-Nov-29 02:33N 38°01' E 023°36'0 0.0
2016-Nov-29 01:33N 38°01' E 023°36'0 0.0
2016-Nov-29 00:33N 38°01' E 023°36'0 0.0
2016-Nov-28 23:33N 38°01' E 023°36'0 0.0
2016-Nov-28 22:33N 38°01' E 023°36'0 0.0
2016-Nov-28 21:33N 38°01' E 023°36'0 0.0
2016-Nov-28 20:33N 38°01' E 023°36'0 0.0
2016-Nov-28 19:33N 38°01' E 023°36'0 0.0
2016-Nov-28 18:34N 38°01' E 023°36'0 0.0
2016-Nov-28 17:33N 38°01' E 023°36'0 0.0
2016-Nov-28 16:33N 38°01' E 023°36'0 0.0
2016-Nov-28 15:34N 38°01' E 023°36'0 0.0
2016-Nov-28 14:33N 38°01' E 023°36'0 0.0
2016-Nov-28 13:33N 38°01' E 023°36'0 0.0
2016-Nov-28 12:33N 38°01' E 023°36'0 0.0
2016-Nov-28 11:34N 38°01' E 023°36'0 0.0
2016-Nov-28 10:33N 38°01' E 023°36'0 0.0
2016-Nov-28 09:33N 38°01' E 023°36'0 0.0
2016-Nov-28 08:33N 38°01' E 023°36'0 0.0
2016-Nov-28 07:33N 38°01' E 023°36'0 0.0
2016-Nov-28 06:33N 38°01' E 023°36'0 0.0
2016-Nov-28 05:33N 38°01' E 023°36'0 0.0
2016-Nov-28 04:34N 38°01' E 023°36'0 0.0
2016-Nov-28 03:33N 38°01' E 023°36'0 0.0
2016-Nov-28 02:33N 38°01' E 023°36'0 0.0
2016-Nov-28 01:33N 38°01' E 023°36'0 0.0
2016-Nov-28 00:33N 38°01' E 023°36'0 0.0
2016-Nov-27 23:33N 38°01' E 023°36'0 0.0
2016-Nov-27 22:34N 38°01' E 023°36'0 0.0
2016-Nov-27 21:34N 38°01' E 023°36'0 0.0
2016-Nov-27 20:33N 38°01' E 023°36'0 0.0
2016-Nov-27 19:33N 38°01' E 023°36'0 0.0
2016-Nov-27 18:33N 38°01' E 023°36'0 0.0
2016-Nov-27 17:33N 38°01' E 023°36'0 0.0
2016-Nov-27 16:34N 38°01' E 023°36'0 0.0
2016-Nov-27 15:34N 38°01' E 023°36'0 0.0
2016-Nov-27 14:34N 38°01' E 023°36'0 0.1
2016-Nov-27 13:34N 38°02' E 023°36'0 0.1
2016-Nov-27 12:33N 38°01' E 023°36'3 2.8
2016-Nov-27 11:33N 37°60' E 023°33'  

Dump ship's entire track history